createdAt,value
2023-02-27T00:00:36.287Z,8.88
2023-02-27T00:03:44.753Z,9.20
2023-02-27T00:06:48.813Z,9.52
2023-02-27T00:09:53.790Z,8.35
2023-02-27T00:13:08.062Z,9.80
2023-02-27T00:16:13.024Z,7.78
2023-02-27T00:19:17.850Z,9.73
2023-02-27T00:22:21.597Z,9.55
2023-02-27T00:25:30.942Z,10.18
2023-02-27T00:28:34.992Z,9.48
2023-02-27T00:31:39.232Z,8.98
2023-02-27T00:34:43.146Z,8.77
2023-02-27T00:37:47.828Z,8.98
2023-02-27T00:40:52.266Z,8.18
2023-02-27T00:43:56.230Z,9.95
2023-02-27T00:47:00.676Z,9.75
2023-02-27T00:50:14.878Z,9.43
2023-02-27T00:53:18.961Z,9.60
2023-02-27T00:56:24.490Z,9.88
2023-02-27T00:59:29.307Z,9.77
2023-02-27T01:02:33.747Z,9.48
2023-02-27T01:05:48.056Z,9.13
2023-02-27T01:08:56.742Z,9.75
2023-02-27T01:12:01.816Z,10.35
2023-02-27T01:15:17.725Z,9.88
2023-02-27T01:18:28.684Z,9.63
2023-02-27T01:21:32.750Z,9.63
2023-02-27T01:24:48.518Z,9.20
2023-02-27T01:27:52.798Z,9.77
2023-02-27T01:30:56.799Z,9.32
2023-02-27T01:34:01.347Z,9.55
2023-02-27T01:37:05.906Z,9.93
2023-02-27T01:40:11.863Z,9.50
2023-02-27T01:43:23.365Z,9.48
2023-02-27T01:46:31.519Z,9.15
2023-02-27T01:49:35.619Z,9.38
2023-02-27T01:52:41.548Z,9.80
2023-02-27T01:55:48.927Z,9.77
2023-02-27T01:58:58.431Z,8.52
2023-02-27T02:02:20.600Z,9.98
2023-02-27T02:05:24.924Z,8.82
2023-02-27T02:08:32.326Z,9.48
2023-02-27T02:11:38.173Z,9.77
2023-02-27T02:14:42.374Z,10.55
2023-02-27T02:17:54.888Z,9.10
2023-02-27T02:21:06.763Z,8.35
2023-02-27T02:24:33.687Z,9.27
2023-02-27T02:27:50.499Z,8.43
2023-02-27T02:31:37.678Z,9.50
2023-02-27T02:35:12.548Z,8.23
2023-02-27T02:42:24.712Z,9.27
2023-02-27T02:45:39.336Z,9.70
2023-02-27T02:48:55.519Z,10.35
2023-02-27T02:52:17.355Z,10.07
2023-02-27T02:55:48.649Z,11.15
2023-02-27T02:59:08.087Z,9.55
2023-02-27T03:02:17.545Z,9.35
2023-02-27T03:05:36.716Z,8.07
2023-02-27T03:08:56.293Z,9.32
2023-02-27T03:12:02.939Z,9.13
2023-02-27T03:15:28.108Z,8.55
2023-02-27T03:18:46.024Z,9.10
2023-02-27T03:22:08.279Z,9.37
2023-02-27T03:25:30.051Z,8.98
2023-02-27T03:28:40.878Z,11.30
2023-02-27T03:31:51.885Z,8.67
2023-02-27T03:35:08.195Z,9.32
2023-02-27T03:42:10.455Z,9.48
2023-02-27T03:46:02.702Z,13.70
2023-02-27T03:49:17.589Z,10.63
2023-02-27T03:52:32.731Z,11.48
2023-02-27T03:55:41.925Z,10.75
2023-02-27T04:02:01.153Z,8.73
2023-02-27T04:05:06.450Z,9.68
2023-02-27T04:08:43.197Z,10.32
2023-02-27T04:12:03.704Z,9.50
2023-02-27T04:15:33.757Z,9.52
2023-02-27T04:19:10.354Z,9.63
2023-02-27T04:22:50.967Z,8.82
2023-02-27T04:26:07.880Z,24.92
2023-02-27T04:29:23.896Z,9.20
2023-02-27T04:32:40.217Z,14.02
2023-02-27T04:36:08.789Z,19.00
2023-02-27T04:39:33.933Z,10.73
2023-02-27T04:42:47.519Z,9.60
2023-02-27T04:45:52.503Z,9.23
2023-02-27T04:49:13.851Z,9.15
2023-02-27T04:52:33.300Z,8.63
2023-02-27T04:55:44.745Z,8.85
2023-02-27T04:58:59.333Z,10.80
2023-02-27T05:02:20.243Z,8.52
2023-02-27T05:05:38.815Z,8.50
2023-02-27T05:09:25.218Z,10.20
2023-02-27T05:12:36.905Z,10.85
2023-02-27T05:15:52.049Z,9.15
2023-02-27T05:19:04.070Z,9.63
2023-02-27T05:22:37.084Z,8.98
2023-02-27T05:29:52.230Z,10.68
2023-02-27T05:32:58.719Z,9.55
2023-02-27T05:36:21.408Z,11.43
2023-02-27T05:39:39.141Z,10.02
2023-02-27T05:42:51.534Z,9.25
2023-02-27T05:46:06.724Z,9.05
2023-02-27T05:49:46.505Z,8.52
2023-02-27T05:52:54.111Z,8.32
2023-02-27T05:56:07.261Z,7.60
2023-02-27T05:59:29.546Z,8.57
2023-02-27T06:02:35.569Z,8.75
2023-02-27T06:05:42.510Z,11.45
2023-02-27T06:08:52.366Z,12.95
2023-02-27T06:11:56.404Z,11.38
2023-02-27T06:15:00.574Z,10.10
2023-02-27T06:18:05.517Z,9.10
2023-02-27T06:21:14.961Z,8.77
2023-02-27T06:24:29.587Z,8.43
2023-02-27T06:27:33.979Z,7.75
2023-02-27T06:30:38.371Z,8.05
2023-02-27T06:33:42.597Z,7.72
2023-02-27T06:36:53.452Z,7.45
2023-02-27T06:39:58.766Z,7.32
2023-02-27T06:43:04.545Z,7.95
2023-02-27T06:46:18.009Z,7.35
2023-02-27T06:49:23.766Z,8.50
2023-02-27T06:52:38.488Z,7.78
2023-02-27T06:55:42.934Z,7.97
2023-02-27T06:58:47.789Z,8.02
2023-02-27T07:01:52.165Z,7.82
2023-02-27T07:05:08.260Z,8.80
2023-02-27T07:08:22.931Z,8.57
2023-02-27T07:11:27.517Z,8.77
2023-02-27T07:14:31.900Z,8.98
2023-02-27T07:17:36.544Z,10.07
2023-02-27T07:20:40.751Z,8.48
2023-02-27T07:23:45.322Z,7.60
2023-02-27T07:26:49.747Z,8.23
2023-02-27T07:30:03.828Z,8.25
2023-02-27T07:33:08.767Z,8.48
2023-02-27T07:36:13.199Z,7.65
2023-02-27T07:39:17.152Z,7.55
2023-02-27T07:42:21.417Z,7.53
2023-02-27T07:45:36.170Z,8.13
2023-02-27T07:48:41.134Z,7.93
2023-02-27T07:51:45.598Z,7.38
2023-02-27T07:54:49.948Z,7.72
2023-02-27T07:57:59.452Z,8.00
2023-02-27T08:01:03.438Z,7.53
2023-02-27T08:04:07.401Z,7.25
2023-02-27T08:07:11.692Z,7.72
2023-02-27T08:10:17.100Z,8.18
2023-02-27T08:13:58.941Z,10.38
2023-02-27T08:17:03.244Z,8.48
2023-02-27T08:20:08.540Z,8.60
2023-02-27T08:23:12.492Z,9.27
2023-02-27T08:26:16.737Z,10.10
2023-02-27T08:29:20.471Z,9.48
2023-02-27T08:32:25.283Z,9.07
2023-02-27T08:35:31.399Z,9.25
2023-02-27T08:38:35.969Z,9.10
2023-02-27T08:41:45.572Z,9.32
2023-02-27T08:45:01.123Z,8.20
2023-02-27T08:48:10.875Z,8.40
2023-02-27T08:51:19.983Z,8.88
2023-02-27T08:54:23.891Z,8.07
2023-02-27T08:57:29.070Z,6.93
2023-02-27T09:00:33.760Z,6.47
2023-02-27T09:03:37.793Z,6.79
2023-02-27T09:06:42.229Z,6.68
2023-02-27T09:09:49.710Z,6.60
2023-02-27T09:12:54.680Z,7.10
2023-02-27T09:15:59.197Z,6.13
2023-02-27T09:19:03.247Z,5.80
2023-02-27T09:22:13.224Z,6.40
2023-02-27T09:25:20.069Z,6.97
2023-02-27T09:28:28.942Z,7.40
2023-02-27T09:31:33.951Z,7.25
2023-02-27T09:34:38.236Z,7.85
2023-02-27T09:37:52.058Z,7.13
2023-02-27T09:41:02.801Z,7.15
2023-02-27T09:44:36.482Z,7.63
2023-02-27T09:48:38.302Z,6.95
2023-02-27T09:51:46.844Z,6.35
2023-02-27T09:54:50.994Z,5.93
2023-02-27T09:58:02.551Z,6.20
2023-02-27T10:01:45.649Z,6.20
2023-02-27T10:04:58.424Z,6.57
2023-02-27T10:12:40.036Z,7.43
2023-02-27T10:15:57.825Z,7.07
2023-02-27T10:19:14.450Z,6.47
2023-02-27T10:22:26.613Z,7.93
2023-02-27T10:25:40.505Z,6.80
2023-02-27T10:28:46.297Z,7.50
2023-02-27T10:32:14.530Z,7.35
2023-02-27T10:35:29.659Z,8.27
2023-02-27T10:38:48.863Z,8.25
2023-02-27T10:41:53.236Z,7.80
2023-02-27T10:45:08.258Z,8.82
2023-02-27T10:48:14.134Z,8.55
2023-02-27T10:51:33.763Z,10.80
2023-02-27T10:54:40.714Z,8.17
2023-02-27T10:57:47.212Z,8.38
2023-02-27T11:00:59.788Z,8.10
2023-02-27T11:04:03.869Z,8.05
2023-02-27T11:07:12.599Z,9.05
2023-02-27T11:10:28.721Z,7.25
2023-02-27T11:13:39.944Z,7.85
2023-02-27T11:17:01.391Z,8.57
2023-02-27T11:20:30.439Z,8.43
2023-02-27T11:24:01.727Z,19.92
2023-02-27T11:27:29.475Z,10.83
2023-02-27T11:30:38.241Z,10.98
2023-02-27T11:33:55.033Z,10.05
2023-02-27T11:37:23.730Z,9.85
2023-02-27T11:40:34.845Z,9.88
2023-02-27T11:43:47.787Z,13.07
2023-02-27T11:46:52.216Z,12.70
2023-02-27T11:49:59.435Z,13.18
2023-02-27T11:53:14.866Z,12.45
2023-02-27T11:57:10.961Z,12.95
2023-02-27T12:00:33.519Z,11.55
2023-02-27T12:04:05.091Z,12.05
2023-02-27T12:07:38.773Z,15.27
2023-02-27T12:11:04.589Z,13.65
2023-02-27T12:14:23.764Z,23.17
2023-02-27T12:17:53.993Z,17.50
2023-02-27T12:21:16.103Z,30.40
2023-02-27T12:24:41.231Z,30.17
2023-02-27T12:28:18.783Z,26.63
2023-02-27T12:31:36.410Z,15.40
2023-02-27T12:34:46.988Z,21.58
2023-02-27T12:37:51.837Z,19.02
2023-02-27T12:41:17.658Z,19.00
2023-02-27T12:45:01.589Z,16.95
2023-02-27T12:48:13.932Z,16.80
2023-02-27T12:51:56.273Z,19.98
2023-02-27T12:55:15.677Z,20.90
2023-02-27T12:58:34.737Z,21.25
2023-02-27T13:02:00.136Z,27.55
2023-02-27T13:09:10.203Z,21.98
2023-02-27T13:12:47.060Z,20.88
2023-02-27T13:15:54.541Z,22.67
2023-02-27T13:19:21.224Z,16.52
2023-02-27T13:22:54.538Z,18.10
2023-02-27T13:26:01.769Z,16.73
2023-02-27T13:29:12.874Z,15.45
2023-02-27T13:32:43.129Z,17.13
2023-02-27T13:36:11.012Z,15.18
2023-02-27T13:39:39.354Z,15.77
2023-02-27T13:42:53.285Z,13.20
2023-02-27T13:46:02.733Z,13.93
2023-02-27T13:49:06.658Z,12.30
2023-02-27T13:52:30.285Z,11.98
2023-02-27T13:55:39.172Z,12.20
2023-02-27T13:58:48.936Z,13.32
2023-02-27T14:02:12.612Z,17.48
2023-02-27T14:05:31.526Z,12.27
2023-02-27T14:08:48.589Z,10.93
2023-02-27T14:12:06.766Z,10.18
2023-02-27T14:15:26.898Z,11.85
2023-02-27T14:18:51.855Z,11.55
2023-02-27T14:22:03.619Z,13.07
2023-02-27T14:25:31.004Z,12.18
2023-02-27T14:28:56.284Z,13.05
2023-02-27T14:32:08.330Z,12.77
2023-02-27T14:35:16.796Z,12.45
2023-02-27T14:38:28.481Z,12.10
2023-02-27T14:42:01.908Z,12.68
2023-02-27T14:45:13.197Z,12.10
2023-02-27T14:48:27.856Z,10.77
2023-02-27T14:51:38.328Z,18.10
2023-02-27T14:54:43.608Z,13.45
2023-02-27T14:58:20.060Z,10.82
2023-02-27T15:01:26.068Z,9.38
2023-02-27T15:04:34.005Z,13.20
2023-02-27T15:07:40.479Z,9.60
2023-02-27T15:10:46.163Z,8.73
2023-02-27T15:14:06.841Z,10.52
2023-02-27T15:21:06.091Z,7.90
2023-02-27T15:24:25.216Z,8.68
2023-02-27T15:27:30.538Z,8.67
2023-02-27T15:30:36.214Z,9.23
2023-02-27T15:33:45.566Z,8.80
2023-02-27T15:36:56.685Z,8.85
2023-02-27T15:40:02.476Z,8.50
2023-02-27T15:43:07.151Z,10.25
2023-02-27T15:46:16.658Z,9.05
2023-02-27T15:49:24.059Z,6.85
2023-02-27T15:52:34.178Z,15.07
2023-02-27T15:56:00.131Z,35.08
2023-02-27T15:59:05.816Z,15.43
2023-02-27T16:02:20.963Z,8.43
2023-02-27T16:05:35.448Z,7.65
2023-02-27T16:08:47.066Z,6.53
2023-02-27T16:12:37.450Z,8.85
2023-02-27T16:15:45.083Z,6.63
2023-02-27T16:18:54.595Z,7.15
2023-02-27T16:22:15.294Z,7.72
2023-02-27T16:25:20.885Z,8.52
2023-02-27T16:28:37.680Z,8.98
2023-02-27T16:31:53.520Z,8.73
2023-02-27T16:35:17.761Z,8.10
2023-02-27T16:38:23.146Z,7.25
2023-02-27T16:41:37.111Z,6.60
2023-02-27T16:44:41.077Z,7.53
2023-02-27T16:47:48.415Z,6.25
2023-02-27T16:50:52.571Z,7.70
2023-02-27T16:54:11.627Z,7.40
2023-02-27T16:57:18.132Z,7.65
2023-02-27T17:00:26.981Z,7.55
2023-02-27T17:03:31.666Z,7.60
2023-02-27T17:06:35.793Z,6.80
2023-02-27T17:09:40.130Z,6.93
2023-02-27T17:12:44.830Z,7.60
2023-02-27T17:15:48.897Z,7.85
2023-02-27T17:18:53.010Z,7.90
2023-02-27T17:22:01.642Z,8.57
2023-02-27T17:25:13.371Z,8.10
2023-02-27T17:28:17.783Z,8.27
2023-02-27T17:31:23.369Z,7.69
2023-02-27T17:34:27.940Z,8.02
2023-02-27T17:37:42.189Z,7.72
2023-02-27T17:40:52.372Z,7.35
2023-02-27T17:43:57.701Z,7.30
2023-02-27T17:47:02.858Z,7.95
2023-02-27T17:50:15.398Z,7.70
2023-02-27T17:53:26.804Z,7.35
2023-02-27T17:56:31.248Z,7.03
2023-02-27T17:59:35.323Z,7.25
2023-02-27T18:02:39.902Z,7.22
2023-02-27T18:05:53.247Z,6.20
2023-02-27T18:09:07.207Z,7.30
2023-02-27T18:12:15.368Z,7.60
2023-02-27T18:15:19.398Z,6.70
2023-02-27T18:18:36.863Z,8.13
2023-02-27T18:21:52.764Z,7.10
2023-02-27T18:25:02.041Z,7.63
2023-02-27T18:28:08.330Z,6.55
2023-02-27T18:31:25.248Z,7.55
2023-02-27T18:34:41.099Z,7.40
2023-02-27T18:37:46.114Z,7.55
2023-02-27T18:40:55.542Z,6.80
2023-02-27T18:44:01.628Z,7.28
2023-02-27T18:47:05.624Z,6.70
2023-02-27T18:50:20.823Z,8.23
2023-02-27T18:53:30.036Z,7.43
2023-02-27T18:56:39.232Z,8.25
2023-02-27T18:59:48.687Z,7.22
2023-02-27T19:02:53.059Z,8.15
2023-02-27T19:05:57.260Z,7.38
2023-02-27T19:09:01.580Z,8.68
2023-02-27T19:12:13.491Z,7.93
2023-02-27T19:15:27.950Z,8.90
2023-02-27T19:18:44.014Z,8.43
2023-02-27T19:21:52.922Z,8.48
2023-02-27T19:24:57.901Z,8.38
2023-02-27T19:28:03.029Z,8.73
2023-02-27T19:31:16.010Z,7.90
2023-02-27T19:34:20.219Z,8.75
2023-02-27T19:37:28.869Z,9.48
2023-02-27T19:40:37.571Z,6.57
2023-02-27T19:43:52.893Z,6.78
2023-02-27T19:46:57.102Z,7.20
2023-02-27T19:50:01.041Z,7.50
2023-02-27T19:53:08.785Z,7.97
2023-02-27T19:56:15.925Z,7.72
2023-02-27T19:59:25.372Z,8.02
2023-02-27T20:02:29.589Z,7.45
2023-02-27T20:05:45.792Z,7.93
2023-02-27T20:08:59.410Z,8.65
2023-02-27T20:12:03.566Z,8.00
2023-02-27T20:15:11.877Z,7.72
2023-02-27T20:18:20.909Z,7.90
2023-02-27T20:21:27.210Z,6.82
2023-02-27T20:24:35.806Z,7.35
2023-02-27T20:27:45.321Z,7.07
2023-02-27T20:30:49.670Z,7.43
2023-02-27T20:33:53.640Z,7.60
2023-02-27T20:36:58.154Z,7.05
2023-02-27T20:40:04.627Z,7.43
2023-02-27T20:43:08.218Z,7.30
2023-02-27T20:46:20.089Z,6.85
2023-02-27T20:49:28.814Z,7.57
2023-02-27T20:52:33.807Z,7.53
2023-02-27T20:55:38.189Z,7.28
2023-02-27T20:58:42.698Z,7.95
2023-02-27T21:01:51.795Z,6.72
2023-02-27T21:04:58.775Z,7.05
2023-02-27T21:08:02.800Z,7.13
2023-02-27T21:11:28.052Z,7.30
2023-02-27T21:14:32.602Z,7.22
2023-02-27T21:17:36.789Z,7.30
2023-02-27T21:20:46.617Z,7.25
2023-02-27T21:24:02.385Z,7.07
2023-02-27T21:27:06.687Z,7.32
2023-02-27T21:30:11.431Z,7.57
2023-02-27T21:33:15.686Z,6.47
2023-02-27T21:36:24.432Z,7.93
2023-02-27T21:39:30.060Z,7.45
2023-02-27T21:42:44.370Z,7.53
2023-02-27T21:45:52.084Z,7.65
2023-02-27T21:48:58.886Z,7.30
2023-02-27T21:52:03.577Z,7.28
2023-02-27T21:55:08.647Z,7.20
2023-02-27T21:58:12.510Z,7.32
2023-02-27T22:01:28.735Z,6.95
2023-02-27T22:04:34.850Z,6.83
2023-02-27T22:07:43.720Z,6.90
2023-02-27T22:11:00.065Z,6.65
2023-02-27T22:14:10.367Z,6.94
2023-02-27T22:17:15.882Z,7.50
2023-02-27T22:20:20.230Z,7.40
2023-02-27T22:23:24.245Z,7.72
2023-02-27T22:26:39.468Z,7.50
2023-02-27T22:29:43.485Z,7.57
2023-02-27T22:32:53.081Z,7.57
2023-02-27T22:35:57.408Z,6.97
2023-02-27T22:39:02.105Z,7.82
2023-02-27T22:42:06.637Z,7.47
2023-02-27T22:45:10.910Z,7.75
2023-02-27T22:48:15.594Z,7.50
2023-02-27T22:51:19.770Z,7.68
2023-02-27T22:54:29.836Z,8.02
2023-02-27T22:57:44.048Z,7.43
2023-02-27T23:00:48.620Z,7.88
2023-02-27T23:04:06.201Z,7.97
2023-02-27T23:07:15.332Z,8.68
2023-02-27T23:10:19.094Z,8.43
2023-02-27T23:13:23.687Z,8.63
2023-02-27T23:16:37.827Z,8.57
2023-02-27T23:19:55.047Z,8.27
2023-02-27T23:22:59.257Z,7.82
2023-02-27T23:26:08.580Z,8.35
2023-02-27T23:29:19.972Z,7.82
2023-02-27T23:32:25.096Z,7.53
2023-02-27T23:35:29.774Z,7.75
2023-02-27T23:38:46.966Z,7.32
2023-02-27T23:41:52.343Z,7.47
2023-02-27T23:45:16.893Z,7.39
2023-02-27T23:48:22.379Z,7.65
2023-02-27T23:51:37.436Z,8.43
2023-02-27T23:54:46.064Z,8.40
2023-02-27T23:57:54.649Z,8.60
